sensor_id;sensor_type;location;lat;lon;timestamp;temperature;humidity
9425;DHT22;17139;52.140;11.636;2023-10-09T00:01:26;11.80;60.60
9425;DHT22;17139;52.140;11.636;2023-10-09T00:03:53;11.80;61.50
9425;DHT22;17139;52.140;11.636;2023-10-09T00:06:22;11.70;60.80
9425;DHT22;17139;52.140;11.636;2023-10-09T00:09:02;11.70;61.00
9425;DHT22;17139;52.140;11.636;2023-10-09T00:11:54;11.60;60.80
9425;DHT22;17139;52.140;11.636;2023-10-09T00:14:23;11.60;60.90
9425;DHT22;17139;52.140;11.636;2023-10-09T00:16:51;12.10;61.50
9425;DHT22;17139;52.140;11.636;2023-10-09T00:19:22;12.00;60.50
9425;DHT22;17139;52.140;11.636;2023-10-09T00:21:57;11.90;60.80
9425;DHT22;17139;52.140;11.636;2023-10-09T00:24:32;11.90;60.80
9425;DHT22;17139;52.140;11.636;2023-10-09T00:26:59;11.80;61.00
9425;DHT22;17139;52.140;11.636;2023-10-09T00:29:37;11.80;61.00
9425;DHT22;17139;52.140;11.636;2023-10-09T00:32:10;11.70;60.90
9425;DHT22;17139;52.140;11.636;2023-10-09T00:34:48;11.70;61.10
9425;DHT22;17139;52.140;11.636;2023-10-09T00:37:17;11.70;61.10
9425;DHT22;17139;52.140;11.636;2023-10-09T00:39:48;11.70;61.10
9425;DHT22;17139;52.140;11.636;2023-10-09T00:42:21;11.60;61.00
9425;DHT22;17139;52.140;11.636;2023-10-09T00:44:53;11.60;60.90
9425;DHT22;17139;52.140;11.636;2023-10-09T00:47:22;11.60;60.90
9425;DHT22;17139;52.140;11.636;2023-10-09T00:49:56;11.60;60.90
9425;DHT22;17139;52.140;11.636;2023-10-09T00:52:33;11.60;60.90
9425;DHT22;17139;52.140;11.636;2023-10-09T00:55:05;12.00;61.20
9425;DHT22;17139;52.140;11.636;2023-10-09T00:57:41;11.90;60.40
9425;DHT22;17139;52.140;11.636;2023-10-09T01:00:10;11.70;60.60
9425;DHT22;17139;52.140;11.636;2023-10-09T01:02:57;11.70;60.80
9425;DHT22;17139;52.140;11.636;2023-10-09T01:05:36;11.60;60.80
9425;DHT22;17139;52.140;11.636;2023-10-09T01:08:06;11.60;60.90
9425;DHT22;17139;52.140;11.636;2023-10-09T01:10:46;11.60;61.00
9425;DHT22;17139;52.140;11.636;2023-10-09T01:13:17;11.60;61.00
9425;DHT22;17139;52.140;11.636;2023-10-09T01:15:45;11.60;61.00
9425;DHT22;17139;52.140;11.636;2023-10-09T01:18:14;11.60;61.00
9425;DHT22;17139;52.140;11.636;2023-10-09T01:20:41;12.00;61.40
9425;DHT22;17139;52.140;11.636;2023-10-09T01:23:12;11.90;60.50
9425;DHT22;17139;52.140;11.636;2023-10-09T01:25:39;11.90;61.00
9425;DHT22;17139;52.140;11.636;2023-10-09T01:28:15;11.80;60.70
9425;DHT22;17139;52.140;11.636;2023-10-09T01:30:43;11.70;60.90
9425;DHT22;17139;52.140;11.636;2023-10-09T01:33:11;11.60;60.90
9425;DHT22;17139;52.140;11.636;2023-10-09T01:35:50;11.60;61.00
9425;DHT22;17139;52.140;11.636;2023-10-09T01:38:25;11.60;61.00
9425;DHT22;17139;52.140;11.636;2023-10-09T01:41:07;11.50;60.90
9425;DHT22;17139;52.140;11.636;2023-10-09T01:43:35;11.50;61.10
9425;DHT22;17139;52.140;11.636;2023-10-09T01:46:04;11.50;61.10
9425;DHT22;17139;52.140;11.636;2023-10-09T01:48:31;11.50;61.10
9425;DHT22;17139;52.140;11.636;2023-10-09T01:51:05;11.50;61.20
9425;DHT22;17139;52.140;11.636;2023-10-09T01:53:35;11.50;61.00
9425;DHT22;17139;52.140;11.636;2023-10-09T01:56:10;11.50;61.10
9425;DHT22;17139;52.140;11.636;2023-10-09T01:58:41;12.30;60.80
9425;DHT22;17139;52.140;11.636;2023-10-09T02:01:12;12.00;60.10
9425;DHT22;17139;52.140;11.636;2023-10-09T02:03:39;11.90;61.10
9425;DHT22;17139;52.140;11.636;2023-10-09T02:06:09;11.80;60.70
9425;DHT22;17139;52.140;11.636;2023-10-09T02:08:53;11.70;60.70
9425;DHT22;17139;52.140;11.636;2023-10-09T02:11:21;11.60;60.70
9425;DHT22;17139;52.140;11.636;2023-10-09T02:14:03;11.50;60.80
9425;DHT22;17139;52.140;11.636;2023-10-09T02:16:42;11.50;61.10
9425;DHT22;17139;52.140;11.636;2023-10-09T02:19:09;11.40;61.10
9425;DHT22;17139;52.140;11.636;2023-10-09T02:21:55;11.40;61.10
9425;DHT22;17139;52.140;11.636;2023-10-09T02:24:26;12.10;61.30
9425;DHT22;17139;52.140;11.636;2023-10-09T02:27:16;11.90;60.40
9425;DHT22;17139;52.140;11.636;2023-10-09T02:30:07;12.10;61.40
9425;DHT22;17139;52.140;11.636;2023-10-09T02:32:45;11.80;60.80
9425;DHT22;17139;52.140;11.636;2023-10-09T02:35:21;11.70;61.10
9425;DHT22;17139;52.140;11.636;2023-10-09T02:37:57;11.60;61.30
9425;DHT22;17139;52.140;11.636;2023-10-09T02:40:28;11.50;61.30
9425;DHT22;17139;52.140;11.636;2023-10-09T02:42:58;11.50;61.40
9425;DHT22;17139;52.140;11.636;2023-10-09T02:45:26;11.50;61.50
9425;DHT22;17139;52.140;11.636;2023-10-09T02:48:00;11.40;61.50
9425;DHT22;17139;52.140;11.636;2023-10-09T02:50:36;11.50;61.60
9425;DHT22;17139;52.140;11.636;2023-10-09T02:53:04;11.40;61.40
9425;DHT22;17139;52.140;11.636;2023-10-09T02:55:36;11.70;62.10
9425;DHT22;17139;52.140;11.636;2023-10-09T02:58:04;11.70;61.40
9425;DHT22;17139;52.140;11.636;2023-10-09T03:00:33;11.50;61.40
9425;DHT22;17139;52.140;11.636;2023-10-09T03:03:03;12.40;62.10
9425;DHT22;17139;52.140;11.636;2023-10-09T03:05:32;12.10;60.90
9425;DHT22;17139;52.140;11.636;2023-10-09T03:07:59;11.90;61.20
9425;DHT22;17139;52.140;11.636;2023-10-09T03:10:27;11.80;61.60
9425;DHT22;17139;52.140;11.636;2023-10-09T03:12:56;11.70;61.90
9425;DHT22;17139;52.140;11.636;2023-10-09T03:15:27;11.60;62.00
9425;DHT22;17139;52.140;11.636;2023-10-09T03:18:01;11.50;61.80
9425;DHT22;17139;52.140;11.636;2023-10-09T03:20:30;11.50;61.80
9425;DHT22;17139;52.140;11.636;2023-10-09T03:22:57;11.50;61.80
9425;DHT22;17139;52.140;11.636;2023-10-09T03:25:27;11.50;61.80
9425;DHT22;17139;52.140;11.636;2023-10-09T03:27:55;11.60;62.30
9425;DHT22;17139;52.140;11.636;2023-10-09T03:30:24;11.60;62.00
9425;DHT22;17139;52.140;11.636;2023-10-09T03:32:52;11.50;61.90
9425;DHT22;17139;52.140;11.636;2023-10-09T03:35:20;12.30;62.20
9425;DHT22;17139;52.140;11.636;2023-10-09T03:37:55;12.10;61.20
9425;DHT22;17139;52.140;11.636;2023-10-09T03:40:25;11.90;61.60
9425;DHT22;17139;52.140;11.636;2023-10-09T03:42:53;11.70;61.80
9425;DHT22;17139;52.140;11.636;2023-10-09T03:45:22;11.70;62.10
9425;DHT22;17139;52.140;11.636;2023-10-09T03:47:53;11.60;62.00
9425;DHT22;17139;52.140;11.636;2023-10-09T03:50:30;11.50;61.80
9425;DHT22;17139;52.140;11.636;2023-10-09T03:53:03;11.50;62.10
9425;DHT22;17139;52.140;11.636;2023-10-09T03:55:34;11.50;62.30
9425;DHT22;17139;52.140;11.636;2023-10-09T03:58:04;11.50;62.30
9425;DHT22;17139;52.140;11.636;2023-10-09T04:00:33;11.50;62.30
9425;DHT22;17139;52.140;11.636;2023-10-09T04:03:10;11.40;62.30
9425;DHT22;17139;52.140;11.636;2023-10-09T04:05:40;11.50;62.30
9425;DHT22;17139;52.140;11.636;2023-10-09T04:08:08;12.40;62.50
9425;DHT22;17139;52.140;11.636;2023-10-09T04:10:39;12.10;61.40
9425;DHT22;17139;52.140;11.636;2023-10-09T04:13:18;11.90;61.70
9425;DHT22;17139;52.140;11.636;2023-10-09T04:15:50;11.80;62.20
9425;DHT22;17139;52.140;11.636;2023-10-09T04:18:20;11.70;62.10
9425;DHT22;17139;52.140;11.636;2023-10-09T04:20:54;11.60;62.30
9425;DHT22;17139;52.140;11.636;2023-10-09T04:23:40;11.50;62.30
9425;DHT22;17139;52.140;11.636;2023-10-09T04:26:24;11.50;62.40
9425;DHT22;17139;52.140;11.636;2023-10-09T04:28:51;11.40;62.50
9425;DHT22;17139;52.140;11.636;2023-10-09T04:31:21;11.40;62.50
9425;DHT22;17139;52.140;11.636;2023-10-09T04:33:57;11.90;63.20
9425;DHT22;17139;52.140;11.636;2023-10-09T04:36:38;11.80;62.20
9425;DHT22;17139;52.140;11.636;2023-10-09T04:39:12;11.60;62.20
9425;DHT22;17139;52.140;11.636;2023-10-09T04:42:01;11.50;62.40
9425;DHT22;17139;52.140;11.636;2023-10-09T04:44:52;11.60;63.10
9425;DHT22;17139;52.140;11.636;2023-10-09T04:47:40;11.60;62.60
9425;DHT22;17139;52.140;11.636;2023-10-09T04:50:15;11.60;63.00
9425;DHT22;17139;52.140;11.636;2023-10-09T04:52:56;11.60;62.50
9425;DHT22;17139;52.140;11.636;2023-10-09T04:55:43;11.60;62.60
9425;DHT22;17139;52.140;11.636;2023-10-09T04:58:19;11.60;62.80
9425;DHT22;17139;52.140;11.636;2023-10-09T05:00:51;11.60;62.80
9425;DHT22;17139;52.140;11.636;2023-10-09T05:03:40;12.10;63.30
9425;DHT22;17139;52.140;11.636;2023-10-09T05:06:10;12.00;62.40
9425;DHT22;17139;52.140;11.636;2023-10-09T05:08:48;11.80;62.20
9425;DHT22;17139;52.140;11.636;2023-10-09T05:11:15;11.80;62.50
9425;DHT22;17139;52.140;11.636;2023-10-09T05:14:00;11.70;62.60
9425;DHT22;17139;52.140;11.636;2023-10-09T05:16:37;12.70;62.80
9425;DHT22;17139;52.140;11.636;2023-10-09T05:19:21;12.40;61.80
9425;DHT22;17139;52.140;11.636;2023-10-09T05:22:05;12.80;62.20
9425;DHT22;17139;52.140;11.636;2023-10-09T05:24:42;13.00;61.80
9425;DHT22;17139;52.140;11.636;2023-10-09T05:27:10;12.70;61.60
9425;DHT22;17139;52.140;11.636;2023-10-09T05:30:07;12.30;62.00
9425;DHT22;17139;52.140;11.636;2023-10-09T05:32:51;12.10;62.50
9425;DHT22;17139;52.140;11.636;2023-10-09T05:35:23;12.00;62.80
9425;DHT22;17139;52.140;11.636;2023-10-09T05:38:06;12.00;62.90
9425;DHT22;17139;52.140;11.636;2023-10-09T05:40:41;11.90;63.10
9425;DHT22;17139;52.140;11.636;2023-10-09T05:43:09;11.90;63.10
9425;DHT22;17139;52.140;11.636;2023-10-09T05:45:56;11.80;63.10
9425;DHT22;17139;52.140;11.636;2023-10-09T05:48:33;11.70;63.00
9425;DHT22;17139;52.140;11.636;2023-10-09T05:51:31;11.60;63.10
9425;DHT22;17139;52.140;11.636;2023-10-09T05:54:19;11.60;63.30
9425;DHT22;17139;52.140;11.636;2023-10-09T05:57:05;11.50;63.30
9425;DHT22;17139;52.140;11.636;2023-10-09T05:59:49;11.50;63.30
9425;DHT22;17139;52.140;11.636;2023-10-09T06:02:33;11.50;63.30
9425;DHT22;17139;52.140;11.636;2023-10-09T06:05:18;11.50;63.20
9425;DHT22;17139;52.140;11.636;2023-10-09T06:08:04;11.50;63.30
9425;DHT22;17139;52.140;11.636;2023-10-09T06:10:33;11.40;63.20
9425;DHT22;17139;52.140;11.636;2023-10-09T06:13:06;11.40;63.10
9425;DHT22;17139;52.140;11.636;2023-10-09T06:15:37;11.30;63.20
9425;DHT22;17139;52.140;11.636;2023-10-09T06:18:33;11.20;63.20
9425;DHT22;17139;52.140;11.636;2023-10-09T06:21:01;11.20;63.20
9425;DHT22;17139;52.140;11.636;2023-10-09T06:23:37;11.10;63.30
9425;DHT22;17139;52.140;11.636;2023-10-09T06:26:21;11.10;63.50
9425;DHT22;17139;52.140;11.636;2023-10-09T06:28:51;11.00;63.60
9425;DHT22;17139;52.140;11.636;2023-10-09T06:31:39;11.20;64.40
9425;DHT22;17139;52.140;11.636;2023-10-09T06:34:20;11.20;63.60
9425;DHT22;17139;52.140;11.636;2023-10-09T06:36:58;11.20;63.60
9425;DHT22;17139;52.140;11.636;2023-10-09T06:39:34;11.10;63.60
9425;DHT22;17139;52.140;11.636;2023-10-09T06:42:16;11.10;63.90
9425;DHT22;17139;52.140;11.636;2023-10-09T06:45:11;11.10;64.50
9425;DHT22;17139;52.140;11.636;2023-10-09T06:47:44;11.10;63.80
9425;DHT22;17139;52.140;11.636;2023-10-09T06:50:21;11.00;63.70
9425;DHT22;17139;52.140;11.636;2023-10-09T06:52:52;11.10;64.40
9425;DHT22;17139;52.140;11.636;2023-10-09T06:55:24;11.20;63.80
9425;DHT22;17139;52.140;11.636;2023-10-09T06:57:59;11.10;63.80
9425;DHT22;17139;52.140;11.636;2023-10-09T07:00:28;11.50;64.70
9425;DHT22;17139;52.140;11.636;2023-10-09T07:03:18;11.50;63.60
9425;DHT22;17139;52.140;11.636;2023-10-09T07:06:03;11.30;63.70
9425;DHT22;17139;52.140;11.636;2023-10-09T07:08:35;11.20;63.90
9425;DHT22;17139;52.140;11.636;2023-10-09T07:11:04;11.10;64.00
9425;DHT22;17139;52.140;11.636;2023-10-09T07:13:45;11.10;64.10
9425;DHT22;17139;52.140;11.636;2023-10-09T07:16:22;11.10;64.10
9425;DHT22;17139;52.140;11.636;2023-10-09T07:18:55;11.20;64.20
9425;DHT22;17139;52.140;11.636;2023-10-09T07:21:35;11.50;65.20
9425;DHT22;17139;52.140;11.636;2023-10-09T07:24:05;11.40;63.90
9425;DHT22;17139;52.140;11.636;2023-10-09T07:26:40;11.30;64.00
9425;DHT22;17139;52.140;11.636;2023-10-09T07:29:13;11.30;64.20
9425;DHT22;17139;52.140;11.636;2023-10-09T07:31:49;11.30;64.20
9425;DHT22;17139;52.140;11.636;2023-10-09T07:34:23;11.20;64.20
9425;DHT22;17139;52.140;11.636;2023-10-09T07:37:19;11.30;64.40
9425;DHT22;17139;52.140;11.636;2023-10-09T07:39:49;11.20;64.20
9425;DHT22;17139;52.140;11.636;2023-10-09T07:42:23;11.30;64.30
9425;DHT22;17139;52.140;11.636;2023-10-09T07:45:10;11.20;64.10
9425;DHT22;17139;52.140;11.636;2023-10-09T07:48:05;11.30;64.30
9425;DHT22;17139;52.140;11.636;2023-10-09T07:50:40;11.30;64.80
9425;DHT22;17139;52.140;11.636;2023-10-09T07:53:14;11.30;64.20
9425;DHT22;17139;52.140;11.636;2023-10-09T07:55:53;11.40;64.50
9425;DHT22;17139;52.140;11.636;2023-10-09T07:58:24;11.30;64.10
9425;DHT22;17139;52.140;11.636;2023-10-09T08:00:52;11.30;64.20
9425;DHT22;17139;52.140;11.636;2023-10-09T08:03:43;11.20;64.40
9425;DHT22;17139;52.140;11.636;2023-10-09T08:06:12;11.20;64.40
9425;DHT22;17139;52.140;11.636;2023-10-09T08:08:56;11.20;64.40
9425;DHT22;17139;52.140;11.636;2023-10-09T08:11:41;11.10;64.30
9425;DHT22;17139;52.140;11.636;2023-10-09T08:14:25;11.10;63.90
9425;DHT22;17139;52.140;11.636;2023-10-09T08:17:14;11.10;63.80
9425;DHT22;17139;52.140;11.636;2023-10-09T08:19:47;11.00;63.70
9425;DHT22;17139;52.140;11.636;2023-10-09T08:22:28;11.10;63.50
9425;DHT22;17139;52.140;11.636;2023-10-09T08:25:16;11.10;63.40
9425;DHT22;17139;52.140;11.636;2023-10-09T08:27:59;11.10;63.50
9425;DHT22;17139;52.140;11.636;2023-10-09T08:30:55;11.20;63.50
9425;DHT22;17139;52.140;11.636;2023-10-09T08:33:29;11.20;63.30
9425;DHT22;17139;52.140;11.636;2023-10-09T08:36:11;11.20;63.20
9425;DHT22;17139;52.140;11.636;2023-10-09T08:38:40;11.30;63.20
9425;DHT22;17139;52.140;11.636;2023-10-09T08:41:09;11.30;63.10
9425;DHT22;17139;52.140;11.636;2023-10-09T08:43:48;11.30;63.00
9425;DHT22;17139;52.140;11.636;2023-10-09T08:46:23;11.30;62.90
9425;DHT22;17139;52.140;11.636;2023-10-09T08:48:53;11.30;62.90
9425;DHT22;17139;52.140;11.636;2023-10-09T08:51:23;12.00;61.50
9425;DHT22;17139;52.140;11.636;2023-10-09T08:53:50;11.80;61.80
9425;DHT22;17139;52.140;11.636;2023-10-09T08:56:19;11.60;62.00
9425;DHT22;17139;52.140;11.636;2023-10-09T08:58:50;11.60;62.40
9425;DHT22;17139;52.140;11.636;2023-10-09T09:01:18;11.60;62.60
9425;DHT22;17139;52.140;11.636;2023-10-09T09:03:47;11.70;62.80
9425;DHT22;17139;52.140;11.636;2023-10-09T09:06:17;11.70;62.70
9425;DHT22;17139;52.140;11.636;2023-10-09T09:08:46;11.70;62.60
9425;DHT22;17139;52.140;11.636;2023-10-09T09:11:15;11.70;62.50
9425;DHT22;17139;52.140;11.636;2023-10-09T09:13:44;11.80;62.60
9425;DHT22;17139;52.140;11.636;2023-10-09T09:16:16;11.70;62.50
9425;DHT22;17139;52.140;11.636;2023-10-09T09:18:50;11.70;62.60
9425;DHT22;17139;52.140;11.636;2023-10-09T09:21:30;11.70;62.60
9425;DHT22;17139;52.140;11.636;2023-10-09T09:24:06;11.60;62.70
9425;DHT22;17139;52.140;11.636;2023-10-09T09:26:41;12.00;62.30
9425;DHT22;17139;52.140;11.636;2023-10-09T09:29:12;12.00;62.00
9425;DHT22;17139;52.140;11.636;2023-10-09T09:31:52;11.90;62.30
9425;DHT22;17139;52.140;11.636;2023-10-09T09:34:20;11.90;62.30
9425;DHT22;17139;52.140;11.636;2023-10-09T09:36:53;11.90;62.30
9425;DHT22;17139;52.140;11.636;2023-10-09T09:39:26;11.90;62.60
9425;DHT22;17139;52.140;11.636;2023-10-09T09:41:59;11.90;62.50
9425;DHT22;17139;52.140;11.636;2023-10-09T09:44:33;12.00;62.40
9425;DHT22;17139;52.140;11.636;2023-10-09T09:47:09;12.00;62.40
9425;DHT22;17139;52.140;11.636;2023-10-09T09:49:41;12.10;62.50
9425;DHT22;17139;52.140;11.636;2023-10-09T09:52:08;12.70;61.10
9425;DHT22;17139;52.140;11.636;2023-10-09T09:54:39;12.60;61.30
9425;DHT22;17139;52.140;11.636;2023-10-09T09:57:07;12.50;61.60
9425;DHT22;17139;52.140;11.636;2023-10-09T09:59:39;12.50;61.70
9425;DHT22;17139;52.140;11.636;2023-10-09T10:02:19;12.50;62.00
9425;DHT22;17139;52.140;11.636;2023-10-09T10:04:47;12.50;62.20
9425;DHT22;17139;52.140;11.636;2023-10-09T10:07:17;12.60;62.20
9425;DHT22;17139;52.140;11.636;2023-10-09T10:09:48;12.60;62.10
9425;DHT22;17139;52.140;11.636;2023-10-09T10:12:50;12.70;62.10
9425;DHT22;17139;52.140;11.636;2023-10-09T10:15:58;12.80;61.90
9425;DHT22;17139;52.140;11.636;2023-10-09T10:18:31;12.70;62.10
9425;DHT22;17139;52.140;11.636;2023-10-09T10:21:11;12.70;63.00
9425;DHT22;17139;52.140;11.636;2023-10-09T10:23:41;12.90;61.80
9425;DHT22;17139;52.140;11.636;2023-10-09T10:26:20;12.80;61.80
9425;DHT22;17139;52.140;11.636;2023-10-09T10:29:16;12.80;62.20
9425;DHT22;17139;52.140;11.636;2023-10-09T10:31:52;12.80;62.20
9425;DHT22;17139;52.140;11.636;2023-10-09T10:34:20;12.70;62.40
9425;DHT22;17139;52.140;11.636;2023-10-09T10:36:49;12.70;62.40
9425;DHT22;17139;52.140;11.636;2023-10-09T10:39:24;12.70;62.40
9425;DHT22;17139;52.140;11.636;2023-10-09T10:42:09;12.70;62.40
9425;DHT22;17139;52.140;11.636;2023-10-09T10:44:56;12.70;62.50
9425;DHT22;17139;52.140;11.636;2023-10-09T10:47:26;12.70;62.60
9425;DHT22;17139;52.140;11.636;2023-10-09T10:49:58;12.70;62.50
9425;DHT22;17139;52.140;11.636;2023-10-09T10:52:33;12.90;62.50
9425;DHT22;17139;52.140;11.636;2023-10-09T10:55:08;12.90;62.30
9425;DHT22;17139;52.140;11.636;2023-10-09T10:57:45;12.90;62.30
9425;DHT22;17139;52.140;11.636;2023-10-09T11:00:27;12.90;62.40
9425;DHT22;17139;52.140;11.636;2023-10-09T11:03:17;13.60;60.80
9425;DHT22;17139;52.140;11.636;2023-10-09T11:05:49;13.40;61.10
9425;DHT22;17139;52.140;11.636;2023-10-09T11:08:24;13.20;61.70
9425;DHT22;17139;52.140;11.636;2023-10-09T11:11:11;13.10;62.00
9425;DHT22;17139;52.140;11.636;2023-10-09T11:13:42;13.20;62.20
9425;DHT22;17139;52.140;11.636;2023-10-09T11:16:23;13.20;62.30
9425;DHT22;17139;52.140;11.636;2023-10-09T11:19:08;13.20;62.30
9425;DHT22;17139;52.140;11.636;2023-10-09T11:21:51;13.20;62.40
9425;DHT22;17139;52.140;11.636;2023-10-09T11:24:40;13.20;62.40
9425;DHT22;17139;52.140;11.636;2023-10-09T11:27:09;13.20;62.40
9425;DHT22;17139;52.140;11.636;2023-10-09T11:29:49;13.20;62.30
9425;DHT22;17139;52.140;11.636;2023-10-09T11:32:19;13.20;62.40
9425;DHT22;17139;52.140;11.636;2023-10-09T11:34:48;13.60;61.60
9425;DHT22;17139;52.140;11.636;2023-10-09T11:37:18;13.60;61.50
9425;DHT22;17139;52.140;11.636;2023-10-09T11:40:05;13.50;61.80
9425;DHT22;17139;52.140;11.636;2023-10-09T11:42:49;13.40;62.10
9425;DHT22;17139;52.140;11.636;2023-10-09T11:45:21;13.40;62.20
9425;DHT22;17139;52.140;11.636;2023-10-09T11:47:51;13.40;62.20
9425;DHT22;17139;52.140;11.636;2023-10-09T11:50:40;13.40;62.40
9425;DHT22;17139;52.140;11.636;2023-10-09T11:53:16;13.30;62.30
9425;DHT22;17139;52.140;11.636;2023-10-09T11:55:59;13.30;62.60
9425;DHT22;17139;52.140;11.636;2023-10-09T11:58:26;13.30;62.70
9425;DHT22;17139;52.140;11.636;2023-10-09T12:00:56;13.80;61.60
9425;DHT22;17139;52.140;11.636;2023-10-09T12:03:25;13.80;61.60
9425;DHT22;17139;52.140;11.636;2023-10-09T12:05:56;13.80;61.80
9425;DHT22;17139;52.140;11.636;2023-10-09T12:08:24;13.80;61.90
9425;DHT22;17139;52.140;11.636;2023-10-09T12:10:53;13.80;62.00
9425;DHT22;17139;52.140;11.636;2023-10-09T12:13:22;13.80;62.10
9425;DHT22;17139;52.140;11.636;2023-10-09T12:15:49;13.70;62.20
9425;DHT22;17139;52.140;11.636;2023-10-09T12:18:20;13.70;62.30
9425;DHT22;17139;52.140;11.636;2023-10-09T12:20:49;13.60;62.40
9425;DHT22;17139;52.140;11.636;2023-10-09T12:23:18;13.60;62.60
9425;DHT22;17139;52.140;11.636;2023-10-09T12:25:47;13.50;62.70
9425;DHT22;17139;52.140;11.636;2023-10-09T12:28:15;13.40;62.80
9425;DHT22;17139;52.140;11.636;2023-10-09T12:30:46;13.40;62.90
9425;DHT22;17139;52.140;11.636;2023-10-09T12:33:16;13.80;62.00
9425;DHT22;17139;52.140;11.636;2023-10-09T12:35:45;13.70;62.00
9425;DHT22;17139;52.140;11.636;2023-10-09T12:38:13;13.60;62.30
9425;DHT22;17139;52.140;11.636;2023-10-09T12:40:44;13.50;62.50
9425;DHT22;17139;52.140;11.636;2023-10-09T12:43:16;14.10;61.10
9425;DHT22;17139;52.140;11.636;2023-10-09T12:45:45;13.90;61.40
9425;DHT22;17139;52.140;11.636;2023-10-09T12:48:12;13.70;62.00
9425;DHT22;17139;52.140;11.636;2023-10-09T12:50:40;13.60;62.30
9425;DHT22;17139;52.140;11.636;2023-10-09T12:53:12;13.60;62.60
9425;DHT22;17139;52.140;11.636;2023-10-09T12:55:43;13.50;62.60
9425;DHT22;17139;52.140;11.636;2023-10-09T12:58:11;13.50;62.80
9425;DHT22;17139;52.140;11.636;2023-10-09T13:00:42;13.40;62.80
9425;DHT22;17139;52.140;11.636;2023-10-09T13:03:15;13.60;62.80
9425;DHT22;17139;52.140;11.636;2023-10-09T13:05:47;13.60;62.60
9425;DHT22;17139;52.140;11.636;2023-10-09T13:08:27;13.60;62.70
9425;DHT22;17139;52.140;11.636;2023-10-09T13:11:01;14.00;61.80
9425;DHT22;17139;52.140;11.636;2023-10-09T13:13:34;14.00;61.80
9425;DHT22;17139;52.140;11.636;2023-10-09T13:16:08;13.90;62.20
9425;DHT22;17139;52.140;11.636;2023-10-09T13:18:38;13.80;62.30
9425;DHT22;17139;52.140;11.636;2023-10-09T13:21:08;13.90;62.50
9425;DHT22;17139;52.140;11.636;2023-10-09T13:23:36;13.90;62.40
9425;DHT22;17139;52.140;11.636;2023-10-09T13:26:07;13.90;62.40
9425;DHT22;17139;52.140;11.636;2023-10-09T13:28:48;13.90;62.50
9425;DHT22;17139;52.140;11.636;2023-10-09T13:31:16;13.90;62.50
9425;DHT22;17139;52.140;11.636;2023-10-09T13:33:44;13.90;62.60
9425;DHT22;17139;52.140;11.636;2023-10-09T13:36:12;14.00;62.50
9425;DHT22;17139;52.140;11.636;2023-10-09T13:38:46;14.00;62.50
9425;DHT22;17139;52.140;11.636;2023-10-09T13:41:13;14.00;62.50
9425;DHT22;17139;52.140;11.636;2023-10-09T13:43:44;14.50;61.50
9425;DHT22;17139;52.140;11.636;2023-10-09T13:46:11;14.30;61.50
9425;DHT22;17139;52.140;11.636;2023-10-09T13:48:40;14.20;62.10
9425;DHT22;17139;52.140;11.636;2023-10-09T13:51:09;14.10;62.30
9425;DHT22;17139;52.140;11.636;2023-10-09T13:53:41;14.00;62.60
9425;DHT22;17139;52.140;11.636;2023-10-09T13:56:13;13.90;62.80
9425;DHT22;17139;52.140;11.636;2023-10-09T13:58:45;13.80;62.80
9425;DHT22;17139;52.140;11.636;2023-10-09T14:01:12;13.80;62.90
9425;DHT22;17139;52.140;11.636;2023-10-09T14:03:47;13.80;63.10
9425;DHT22;17139;52.140;11.636;2023-10-09T14:06:16;13.70;63.00
9425;DHT22;17139;52.140;11.636;2023-10-09T14:08:48;13.80;63.20
9425;DHT22;17139;52.140;11.636;2023-10-09T14:11:16;13.70;63.10
9425;DHT22;17139;52.140;11.636;2023-10-09T14:13:43;13.70;63.00
9425;DHT22;17139;52.140;11.636;2023-10-09T14:16:10;14.00;62.50
9425;DHT22;17139;52.140;11.636;2023-10-09T14:18:49;13.90;62.40
9425;DHT22;17139;52.140;11.636;2023-10-09T14:21:19;13.80;62.80
9425;DHT22;17139;52.140;11.636;2023-10-09T14:23:47;13.80;63.00
9425;DHT22;17139;52.140;11.636;2023-10-09T14:26:15;13.80;63.10
9425;DHT22;17139;52.140;11.636;2023-10-09T14:28:44;13.80;63.00
9425;DHT22;17139;52.140;11.636;2023-10-09T14:31:11;13.90;63.10
9425;DHT22;17139;52.140;11.636;2023-10-09T14:33:40;13.90;63.00
9425;DHT22;17139;52.140;11.636;2023-10-09T14:36:09;14.00;63.10
9425;DHT22;17139;52.140;11.636;2023-10-09T14:38:40;14.10;62.80
9425;DHT22;17139;52.140;11.636;2023-10-09T14:41:08;14.60;61.60
9425;DHT22;17139;52.140;11.636;2023-10-09T14:43:41;15.10;60.40
9425;DHT22;17139;52.140;11.636;2023-10-09T14:46:13;14.90;60.90
9425;DHT22;17139;52.140;11.636;2023-10-09T14:48:40;15.40;60.20
9425;DHT22;17139;52.140;11.636;2023-10-09T14:51:11;15.00;60.70
9425;DHT22;17139;52.140;11.636;2023-10-09T14:53:39;14.80;61.60
9425;DHT22;17139;52.140;11.636;2023-10-09T14:56:06;14.60;62.00
9425;DHT22;17139;52.140;11.636;2023-10-09T14:58:35;14.50;62.30
9425;DHT22;17139;52.140;11.636;2023-10-09T15:01:09;14.80;62.10
9425;DHT22;17139;52.140;11.636;2023-10-09T15:03:38;14.70;62.00
9425;DHT22;17139;52.140;11.636;2023-10-09T15:06:05;14.60;62.40
9425;DHT22;17139;52.140;11.636;2023-10-09T15:08:36;14.50;62.60
9425;DHT22;17139;52.140;11.636;2023-10-09T15:11:03;14.50;62.70
9425;DHT22;17139;52.140;11.636;2023-10-09T15:13:31;14.50;62.70
9425;DHT22;17139;52.140;11.636;2023-10-09T15:15:58;14.40;62.70
9425;DHT22;17139;52.140;11.636;2023-10-09T15:18:29;14.40;62.90
9425;DHT22;17139;52.140;11.636;2023-10-09T15:20:59;14.30;63.00
9425;DHT22;17139;52.140;11.636;2023-10-09T15:23:26;14.30;63.00
9425;DHT22;17139;52.140;11.636;2023-10-09T15:25:53;14.30;63.70
9425;DHT22;17139;52.140;11.636;2023-10-09T15:28:22;14.40;63.10
9425;DHT22;17139;52.140;11.636;2023-10-09T15:30:49;14.40;63.10
9425;DHT22;17139;52.140;11.636;2023-10-09T15:33:17;14.60;62.60
9425;DHT22;17139;52.140;11.636;2023-10-09T15:35:46;15.00;61.80
9425;DHT22;17139;52.140;11.636;2023-10-09T15:38:15;14.80;61.80
9425;DHT22;17139;52.140;11.636;2023-10-09T15:40:42;14.70;62.40
9425;DHT22;17139;52.140;11.636;2023-10-09T15:43:10;14.60;62.60
9425;DHT22;17139;52.140;11.636;2023-10-09T15:45:42;14.50;62.80
9425;DHT22;17139;52.140;11.636;2023-10-09T15:48:10;14.50;63.00
9425;DHT22;17139;52.140;11.636;2023-10-09T15:50:38;14.40;63.00
9425;DHT22;17139;52.140;11.636;2023-10-09T15:53:06;14.40;63.00
9425;DHT22;17139;52.140;11.636;2023-10-09T15:55:35;14.40;63.10
9425;DHT22;17139;52.140;11.636;2023-10-09T15:58:03;14.40;63.20
9425;DHT22;17139;52.140;11.636;2023-10-09T16:00:34;14.80;62.70
9425;DHT22;17139;52.140;11.636;2023-10-09T16:03:03;14.60;62.60
9425;DHT22;17139;52.140;11.636;2023-10-09T16:05:34;14.60;63.10
9425;DHT22;17139;52.140;11.636;2023-10-09T16:08:02;14.50;63.30
9425;DHT22;17139;52.140;11.636;2023-10-09T16:10:31;14.50;63.50
9425;DHT22;17139;52.140;11.636;2023-10-09T16:13:00;14.50;63.60